Time;durP1;ratioP1;P1;durP2;ratioP2;P2;SDS_P1;SDS_P2;PMS_P1;PMS_P2;Temp;Humidity;BMP_temperature;BMP_pressure;BME280_temperature;BME280_humidity;BME280_pressure;Samples;Min_cycle;Max_cycle;Signal;HPM_P1;HPM_P2
2024/01/25 00:00:47;;;;;;;0.20;0.20;;;;;;;1.52;91.59;97168.22;4967422;28;20059;-59
2024/01/25 00:03:14;;;;;;;0.20;0.20;;;;;;;1.70;91.23;97175.44;4967546;28;20540;-59
2024/01/25 00:05:40;;;;;;;0.20;0.20;;;;;;;1.25;90.32;97136.38;4982145;28;20061;-58
2024/01/25 00:08:07;;;;;;;0.10;0.10;;;;;;;1.04;93.89;97216.25;4969191;28;20062;-58
2024/01/25 00:10:34;;;;;;;0.20;0.20;;;;;;;0.47;94.12;97067.00;4967166;28;20057;-58
2024/01/25 00:13:01;;;;;;;0.20;0.20;;;;;;;1.46;92.53;97186.66;4967233;28;20498;-58
2024/01/25 00:15:28;;;;;;;0.20;0.20;;;;;;;1.53;92.16;97192.47;4967537;28;20426;-60
2024/01/25 00:17:56;;;;;;;0.20;0.20;;;;;;;1.15;91.78;97103.91;4967888;28;20055;-60
2024/01/25 00:20:23;;;;;;;0.20;0.20;;;;;;;1.40;92.10;97144.22;4967479;28;20058;-59
2024/01/25 00:22:50;;;;;;;0.20;0.20;;;;;;;1.55;91.60;97179.31;4967730;28;20058;-61
2024/01/25 00:25:17;;;;;;;0.20;0.20;;;;;;;1.74;91.74;97153.78;4967072;28;20133;-58
2024/01/25 00:27:44;;;;;;;0.20;0.20;;;;;;;1.73;90.79;97160.34;4967253;28;20434;-59
2024/01/25 00:30:12;;;;;;;0.20;0.20;;;;;;;1.21;89.99;97090.94;4967169;28;20054;-58
2024/01/25 00:32:38;;;;;;;0.20;0.20;;;;;;;1.65;90.52;97155.63;4965800;28;20058;-58
2024/01/25 00:35:06;;;;;;;0.20;0.20;;;;;;;1.70;90.26;97141.84;4967166;28;20051;-59
2024/01/25 00:37:33;;;;;;;0.20;0.20;;;;;;;1.52;91.08;97169.03;4967368;28;20078;-61
2024/01/25 00:40:00;;;;;;;0.20;0.20;;;;;;;1.47;91.71;97160.97;4966984;28;20047;-58
2024/01/25 00:42:28;;;;;;;0.20;0.20;;;;;;;1.61;92.18;97149.19;4966427;28;20908;-58
2024/01/25 00:44:55;;;;;;;0.20;0.20;;;;;;;1.75;91.31;97149.91;4966927;28;20066;-60
2024/01/25 00:47:22;;;;;;;0.20;0.20;;;;;;;1.70;91.11;97125.47;4965370;28;20062;-60
2024/01/25 00:49:49;;;;;;;0.20;0.20;;;;;;;1.95;88.89;97127.53;4966654;28;20510;-60
2024/01/25 00:52:17;;;;;;;0.20;0.20;;;;;;;1.88;89.28;97122.53;4967173;28;20118;-58
2024/01/25 00:54:47;;;;;;;0.20;0.20;;;;;;;1.99;88.61;97117.63;4966840;28;20050;-58
2024/01/25 00:57:14;;;;;;;0.20;0.20;;;;;;;2.02;88.74;97122.44;4966966;28;20402;-59
2024/01/25 00:59:41;;;;;;;0.20;0.20;;;;;;;1.55;88.54;97026.47;4966847;28;20061;-58
2024/01/25 01:02:11;;;;;;;0.20;0.20;;;;;;;1.94;88.34;97095.91;4966742;28;20046;-58
2024/01/25 01:04:40;;;;;;;0.20;0.20;;;;;;;2.12;88.35;97111.25;4966277;28;20050;-58
2024/01/25 01:07:14;;;;;;;0.20;0.20;;;;;;;1.31;89.00;97068.88;4966619;28;20125;-59
2024/01/25 01:09:42;;;;;;;0.20;0.20;;;;;;;1.86;89.28;97124.78;4966615;28;20415;-58
2024/01/25 01:12:08;;;;;;;0.20;0.20;;;;;;;2.10;89.13;97135.34;4965895;28;20058;-58
2024/01/25 01:14:35;;;;;;;0.20;0.20;;;;;;;2.00;88.39;97120.03;4966452;28;20109;-60
2024/01/25 01:17:02;;;;;;;0.20;0.20;;;;;;;2.00;88.21;97075.53;4966323;28;20407;-58
2024/01/25 01:19:29;;;;;;;0.20;0.20;;;;;;;1.98;88.59;97066.81;4966051;28;20585;-59
2024/01/25 01:21:56;;;;;;;0.20;0.20;;;;;;;2.04;87.26;97092.91;4966155;28;20058;-59
2024/01/25 01:24:23;;;;;;;0.20;0.20;;;;;;;1.75;88.58;97078.94;4966370;28;20145;-62
2024/01/25 01:26:50;;;;;;;0.20;0.20;;;;;;;1.58;88.18;97040.63;4966291;28;20086;-58
2024/01/25 01:29:18;;;;;;;0.20;0.20;;;;;;;1.99;88.63;97107.47;4964939;28;20065;-59
2024/01/25 01:31:45;;;;;;;0.20;0.20;;;;;;;1.84;88.60;97063.38;4966304;28;20051;-59
2024/01/25 01:34:14;;;;;;;0.20;0.20;;;;;;;1.50;91.33;97111.22;4966214;28;20062;-59
2024/01/25 01:36:41;;;;;;;0.20;0.20;;;;;;;1.83;90.67;97081.72;4965500;28;20054;-58
2024/01/25 01:39:08;;;;;;;0.20;0.20;;;;;;;1.45;90.53;97012.31;4980892;28;20055;-59
2024/01/25 01:41:35;;;;;;;0.20;0.20;;;;;;;1.69;90.03;97080.19;4965983;28;20152;-58
2024/01/25 01:44:02;;;;;;;0.20;0.20;;;;;;;1.62;92.22;97071.63;4965822;28;20133;-58
2024/01/25 01:46:37;;;;;;;0.20;0.20;;;;;;;1.53;91.36;96995.97;4965783;28;20055;-59
2024/01/25 01:49:04;;;;;;;0.20;0.20;;;;;;;1.84;90.44;97049.75;4964059;28;20102;-59
2024/01/25 01:51:32;;;;;;;0.20;0.20;;;;;;;1.85;90.29;97018.59;4964738;28;20617;-58
2024/01/25 01:54:03;;;;;;;0.20;0.20;;;;;;;1.37;92.14;97046.63;4965625;28;20058;-58
2024/01/25 01:56:29;;;;;;;0.20;0.20;;;;;;;1.58;92.56;97032.44;4964392;28;20436;-59
2024/01/25 01:59:01;;;;;;;0.20;0.20;;;;;;;1.74;92.14;97028.97;4965646;28;20058;-58
2024/01/25 02:01:28;;;;;;;0.20;0.20;;;;;;;1.82;91.51;97008.31;4965532;28;20446;-60
2024/01/25 02:03:56;;;;;;;0.20;0.20;;;;;;;1.64;90.59;96985.59;4980342;28;20497;-60
2024/01/25 02:06:26;;;;;;;0.20;0.20;;;;;;;1.23;91.21;96969.47;4963654;28;20497;-60
2024/01/25 02:08:55;;;;;;;0.20;0.20;;;;;;;1.48;93.81;96982.47;4944847;29;20062;-59
2024/01/25 02:11:22;;;;;;;0.20;0.20;;;;;;;1.74;93.11;96979.03;4945693;28;20066;-57
2024/01/25 02:13:49;;;;;;;0.20;0.20;;;;;;;1.85;92.15;96997.53;4946313;28;20542;-60
2024/01/25 02:16:20;;;;;;;0.20;0.20;;;;;;;2.03;91.05;97003.88;4945053;29;20051;-58
2024/01/25 02:18:47;;;;;;;0.20;0.20;;;;;;;1.98;90.87;97012.19;4946178;28;20047;-60
2024/01/25 02:21:15;;;;;;;0.20;0.20;;;;;;;1.50;92.43;96999.31;4946142;28;20510;-58
2024/01/25 02:23:42;;;;;;;0.20;0.20;;;;;;;1.17;93.64;96929.81;4944695;29;20125;-57
2024/01/25 02:26:09;;;;;;;0.20;0.20;;;;;;;1.73;93.28;97010.19;4944657;29;20439;-58
2024/01/25 02:28:36;;;;;;;0.20;0.20;;;;;;;1.77;92.87;96994.78;4945708;28;20062;-58
2024/01/25 02:31:03;;;;;;;0.20;0.20;;;;;;;1.66;93.57;96982.53;4945681;28;20058;-59
2024/01/25 02:33:30;;;;;;;0.20;0.20;;;;;;;1.50;92.46;96911.97;4946107;28;20051;-59
2024/01/25 02:35:57;;;;;;;0.20;0.20;;;;;;;1.87;91.78;96999.94;4945900;28;20055;-58
2024/01/25 02:38:24;;;;;;;0.20;0.20;;;;;;;1.85;91.63;96951.13;4945876;28;20261;-58
2024/01/25 02:40:53;;;;;;;0.20;0.20;;;;;;;1.58;92.00;96916.66;4945851;28;20102;-58
2024/01/25 02:43:20;;;;;;;0.20;0.20;;;;;;;1.89;91.70;96981.34;4945740;28;20055;-58
2024/01/25 02:45:48;;;;;;;0.20;0.20;;;;;;;1.90;90.80;96977.50;4944129;29;20078;-57
2024/01/25 02:48:15;;;;;;;0.20;0.20;;;;;;;1.76;92.26;97009.53;4945523;28;20082;-57
2024/01/25 02:50:42;;;;;;;0.20;0.20;;;;;;;1.37;93.80;96978.41;4945748;28;20244;-58
2024/01/25 02:53:09;;;;;;;0.20;0.20;;;;;;;1.60;94.44;97000.19;4946071;28;20070;-58
2024/01/25 02:55:36;;;;;;;0.20;0.20;;;;;;;1.68;94.05;96963.91;4944475;29;20489;-59
2024/01/25 02:58:02;;;;;;;0.20;0.20;;;;;;;1.74;93.47;96987.22;4946033;28;20603;-59
2024/01/25 03:00:29;;;;;;;0.20;0.20;;;;;;;2.00;92.19;96978.00;4944458;29;20509;-58
2024/01/25 03:02:56;;;;;;;0.20;0.20;;;;;;;1.93;92.04;97001.44;4947876;28;20865;-58
2024/01/25 03:05:23;;;;;;;0.20;0.20;;;;;;;2.00;92.21;97004.50;4949190;28;20058;-59
2024/01/25 03:07:50;;;;;;;0.20;0.20;;;;;;;1.95;91.70;96999.19;4962272;28;20556;-58
2024/01/25 03:10:17;;;;;;;0.20;0.20;;;;;;;1.96;91.50;96987.16;4983316;28;20090;-59
2024/01/25 03:12:44;;;;;;;0.20;0.20;;;;;;;1.86;91.57;96981.97;4968078;28;20335;-60
2024/01/25 03:15:11;;;;;;;0.20;0.20;;;;;;;1.74;91.42;96935.38;4968417;28;20074;-62
2024/01/25 03:17:38;;;;;;;0.20;0.20;;;;;;;1.20;92.28;96904.63;4968869;28;20404;-59
2024/01/25 03:20:06;;;;;;;0.20;0.20;;;;;;;1.44;95.20;96988.84;4983041;28;20168;-58
2024/01/25 03:22:33;;;;;;;0.20;0.20;;;;;;;1.78;95.49;96967.19;4968494;28;20152;-60
2024/01/25 03:24:59;;;;;;;0.20;0.20;;;;;;;1.47;95.69;96930.94;4968187;28;20062;-58
2024/01/25 03:27:26;;;;;;;0.20;0.20;;;;;;;1.49;95.43;96906.84;4968322;28;20050;-59
2024/01/25 03:29:53;;;;;;;0.20;0.20;;;;;;;1.95;94.07;96930.91;4968576;28;20055;-61
2024/01/25 03:32:20;;;;;;;0.20;0.20;;;;;;;1.87;93.73;96901.66;4968404;28;20057;-58
2024/01/25 03:34:46;;;;;;;0.20;0.20;;;;;;;2.05;93.04;96933.34;4968436;28;20047;-60
2024/01/25 03:37:14;;;;;;;0.20;0.20;;;;;;;2.06;92.60;96937.69;4968442;28;20055;-59
2024/01/25 03:39:40;;;;;;;0.20;0.20;;;;;;;2.20;93.00;96941.88;4968032;28;20086;-60
2024/01/25 03:42:07;;;;;;;0.20;0.20;;;;;;;2.01;92.60;96902.34;4968559;28;20363;-58
2024/01/25 03:44:34;;;;;;;0.20;0.20;;;;;;;2.46;92.79;96952.84;4967982;28;20063;-59
2024/01/25 03:47:01;;;;;;;0.20;0.20;;;;;;;2.62;92.48;96951.25;4968096;28;20059;-61
2024/01/25 03:49:27;;;;;;;0.20;0.20;;;;;;;2.79;92.72;96956.72;4968001;28;20133;-58
2024/01/25 03:51:55;;;;;;;0.20;0.20;;;;;;;2.73;91.52;96915.06;4982516;28;20082;-58
2024/01/25 03:54:21;;;;;;;0.20;0.20;;;;;;;3.18;92.43;96961.97;4967657;28;20528;-59
2024/01/25 03:56:48;;;;;;;0.30;0.30;;;;;;;4.01;94.24;96900.13;4982352;28;20055;-61
2024/01/25 03:59:15;;;;;;;0.20;0.20;;;;;;;5.62;86.14;96932.75;4966306;28;20165;-58
2024/01/25 04:01:43;;;;;;;0.30;0.30;;;;;;;6.08;80.69;96907.59;4967728;28;20065;-59
2024/01/25 04:04:11;;;;;;;0.30;0.30;;;;;;;7.10;76.18;96933.50;4982653;28;20595;-58
2024/01/25 04:06:41;;;;;;;0.35;0.35;;;;;;;7.69;72.29;96939.06;4965026;28;20079;-61
2024/01/25 04:09:08;;;;;;;0.40;0.40;;;;;;;7.60;72.40;96939.22;4948096;28;20087;-59
2024/01/25 04:11:38;;;;;;;0.40;0.40;;;;;;;7.27;71.81;96900.13;4947989;28;20150;-58
2024/01/25 04:14:05;;;;;;;0.40;0.40;;;;;;;7.85;71.09;96934.34;4946087;28;20585;-60
2024/01/25 04:16:33;;;;;;;0.40;0.40;;;;;;;7.61;70.68;96907.75;4948520;28;20066;-58
2024/01/25 04:19:00;;;;;;;0.40;0.40;;;;;;;8.01;69.68;96920.56;4946847;29;20078;-61
2024/01/25 04:21:28;;;;;;;0.40;0.40;;;;;;;7.98;69.09;96930.38;4948140;28;20051;-60
2024/01/25 04:23:55;;;;;;;0.40;0.40;;;;;;;7.50;68.97;96861.78;4947837;28;20134;-59
2024/01/25 04:26:22;;;;;;;0.40;0.40;;;;;;;7.91;69.02;96930.16;4948056;28;20062;-62
2024/01/25 04:28:49;;;;;;;0.40;0.40;;;;;;;7.83;69.41;96928.38;4948311;28;20059;-59
2024/01/25 04:31:16;;;;;;;0.30;0.30;;;;;;;7.89;69.07;96909.63;4946722;29;20717;-61
2024/01/25 04:33:43;;;;;;;0.40;0.40;;;;;;;8.21;67.12;96928.56;4946189;29;20592;-62
2024/01/25 04:36:14;;;;;;;0.40;0.40;;;;;;;8.21;65.35;96861.53;4947757;28;20470;-60
2024/01/25 04:38:41;;;;;;;0.40;0.40;;;;;;;8.66;64.67;96911.50;4947758;28;20105;-60
2024/01/25 04:41:08;;;;;;;0.40;0.40;;;;;;;8.56;65.26;96906.53;4947798;28;20131;-60
2024/01/25 04:43:38;;;;;;;0.40;0.40;;;;;;;8.87;63.08;96895.38;4946733;29;20272;-61
2024/01/25 04:46:05;;;;;;;0.40;0.40;;;;;;;8.98;61.88;96871.53;4947481;28;20424;-60
2024/01/25 04:48:32;;;;;;;0.40;0.40;;;;;;;9.18;60.97;96873.13;4947648;28;20058;-60
2024/01/25 04:50:59;;;;;;;0.40;0.40;;;;;;;9.16;61.02;96869.91;4947653;28;20069;-59
2024/01/25 04:53:27;;;;;;;0.40;0.40;;;;;;;8.94;61.48;96874.25;4947629;28;20051;-60
2024/01/25 04:55:54;;;;;;;0.40;0.40;;;;;;;8.89;61.11;96870.94;4947761;28;20055;-59
2024/01/25 04:58:21;;;;;;;0.40;0.40;;;;;;;9.08;59.97;96873.72;4946199;29;20051;-60
2024/01/25 05:00:50;;;;;;;0.40;0.40;;;;;;;9.09;59.70;96889.09;4947390;28;20079;-60
2024/01/25 05:03:19;;;;;;;0.40;0.40;;;;;;;9.06;59.82;96906.41;4945732;29;20138;-60
2024/01/25 05:05:46;;;;;;;0.40;0.40;;;;;;;9.17;58.50;96915.72;4947318;28;20047;-60
2024/01/25 05:08:13;;;;;;;0.40;0.40;;;;;;;9.23;58.37;96909.53;4962051;28;20082;-60
2024/01/25 05:10:40;;;;;;;0.40;0.40;;;;;;;9.34;57.44;96925.53;4966427;28;20576;-60
2024/01/25 05:13:07;;;;;;;0.45;0.45;;;;;;;9.35;57.69;96919.66;4980993;28;20055;-60
2024/01/25 05:15:34;;;;;;;0.40;0.40;;;;;;;8.75;58.18;96867.91;4966559;28;20043;-58
2024/01/25 05:18:05;;;;;;;0.40;0.40;;;;;;;9.27;57.58;96920.69;4966604;28;20054;-59
2024/01/25 05:20:33;;;;;;;0.40;0.40;;;;;;;9.47;54.15;96921.47;4966119;28;20051;-60
2024/01/25 05:23:02;;;;;;;0.50;0.50;;;;;;;9.71;52.98;96924.69;4966850;28;20051;-60
2024/01/25 05:25:30;;;;;;;0.47;0.47;;;;;;;9.69;52.79;96901.34;4966077;28;20529;-59
2024/01/25 05:27:57;;;;;;;0.50;0.50;;;;;;;9.97;51.80;96888.78;4966764;28;20064;-62
2024/01/25 05:30:25;;;;;;;0.40;0.40;;;;;;;9.85;52.44;96902.78;4966364;28;20094;-60
2024/01/25 05:32:54;;;;;;;0.40;0.40;;;;;;;9.54;52.33;96864.31;4966335;28;20165;-62
2024/01/25 05:35:23;;;;;;;0.40;0.40;;;;;;;9.75;51.06;96878.53;4980403;28;20062;-61
2024/01/25 05:37:50;;;;;;;0.40;0.40;;;;;;;9.90;50.41;96871.25;4980762;28;20054;-59
2024/01/25 05:40:17;;;;;;;0.40;0.40;;;;;;;10.04;49.86;96877.03;4980890;28;20058;-59
2024/01/25 05:42:44;;;;;;;0.40;0.40;;;;;;;10.16;49.67;96885.94;4966239;28;20051;-59
2024/01/25 05:45:11;;;;;;;0.40;0.40;;;;;;;10.30;48.49;96857.72;4980502;28;20078;-62
2024/01/25 05:47:39;;;;;;;0.50;0.50;;;;;;;10.41;47.66;96865.00;4965996;28;20485;-59
2024/01/25 05:50:06;;;;;;;0.50;0.50;;;;;;;10.47;46.33;96813.66;4965654;28;20050;-59
2024/01/25 05:52:36;;;;;;;0.40;0.40;;;;;;;10.90;45.72;96819.72;4965962;28;20086;-59
2024/01/25 05:55:04;;;;;;;0.40;0.40;;;;;;;10.98;45.72;96808.38;4980651;28;20059;-60
2024/01/25 05:57:32;;;;;;;0.40;0.40;;;;;;;11.02;45.28;96842.44;4965733;28;20062;-59
2024/01/25 05:59:59;;;;;;;0.50;0.50;;;;;;;11.16;45.13;96817.66;4965897;28;20118;-58
2024/01/25 06:02:26;;;;;;;0.50;0.50;;;;;;;11.06;45.77;96836.94;4964274;28;20069;-59
2024/01/25 06:04:53;;;;;;;0.40;0.40;;;;;;;11.07;45.83;96808.03;4965246;28;20086;-60
2024/01/25 06:07:20;;;;;;;0.43;0.43;;;;;;;11.04;45.66;96825.44;4965483;28;20054;-59
2024/01/25 06:09:47;;;;;;;0.40;0.40;;;;;;;10.76;47.15;96841.72;4959053;28;20066;-59
2024/01/25 06:12:14;;;;;;;0.40;0.40;;;;;;;10.79;37.49;96827.13;4965231;28;20062;-61
2024/01/25 06:14:41;;;;;;;0.40;0.40;;;;;;;11.68;42.67;96872.13;4965462;28;20506;-59
2024/01/25 06:17:08;;;;;;;0.50;0.50;;;;;;;11.29;44.84;96832.06;4965836;28;20050;-59
2024/01/25 06:19:35;;;;;;;0.50;0.50;;;;;;;11.01;45.78;96826.19;4965454;28;20600;-60
2024/01/25 06:22:02;;;;;;;0.50;0.50;;;;;;;10.79;46.74;96868.69;4965455;28;20153;-59
2024/01/25 06:24:30;;;;;;;0.50;0.50;;;;;;;10.84;41.47;96826.78;4965457;28;20074;-61
2024/01/25 06:26:57;;;;;;;0.50;0.50;;;;;;;10.85;45.09;96864.41;4965299;28;20061;-60
2024/01/25 06:29:23;;;;;;;0.50;0.50;;;;;;;10.51;43.91;96869.88;4965215;28;20093;-61
2024/01/25 06:31:51;;;;;;;0.50;0.50;;;;;;;10.70;43.96;96864.22;4963681;28;20059;-60
2024/01/25 06:34:18;;;;;;;0.50;0.50;;;;;;;10.39;43.10;96880.38;4996191;28;20145;-63
2024/01/25 06:36:45;;;;;;;0.40;0.40;;;;;;;10.51;45.04;96908.66;4964645;28;20055;-61
2024/01/25 06:39:12;;;;;;;0.40;0.40;;;;;;;10.34;48.01;96875.97;4965268;28;20058;-59
2024/01/25 06:41:38;;;;;;;0.50;0.50;;;;;;;10.21;49.41;96910.56;4965174;28;20050;-59
2024/01/25 06:44:05;;;;;;;0.40;0.40;;;;;;;9.63;49.77;96847.47;4965084;28;20051;-61
2024/01/25 06:46:32;;;;;;;0.40;0.40;;;;;;;10.19;50.99;96888.00;4965208;28;20110;-59
2024/01/25 06:48:59;;;;;;;0.40;0.40;;;;;;;10.17;50.56;96920.78;4964796;28;20058;-59
2024/01/25 06:51:26;;;;;;;0.40;0.40;;;;;;;10.23;51.52;96897.16;4965109;28;20050;-60
2024/01/25 06:53:53;;;;;;;0.40;0.40;;;;;;;9.77;52.04;96883.69;4964804;28;20050;-61
2024/01/25 06:56:20;;;;;;;0.40;0.40;;;;;;;9.92;51.30;96908.47;4964262;28;20146;-56
2024/01/25 06:58:47;;;;;;;0.40;0.40;;;;;;;10.04;51.18;96904.69;4979827;28;20052;-62
2024/01/25 07:01:20;;;;;;;0.40;0.40;;;;;;;9.36;50.59;96829.25;4982712;28;20061;-55
2024/01/25 07:03:50;;;;;;;0.40;0.40;;;;;;;10.06;50.24;96903.16;4983441;28;20062;-59
2024/01/25 07:06:18;;;;;;;0.40;0.40;;;;;;;9.94;50.61;96911.66;4982250;28;20140;-64
2024/01/25 07:08:46;;;;;;;0.40;0.40;;;;;;;10.01;50.35;96928.38;4983113;28;20050;-61
2024/01/25 07:11:12;;;;;;;0.40;0.40;;;;;;;9.99;50.47;96925.16;4982888;28;20065;-62
2024/01/25 07:13:41;;;;;;;0.40;0.40;;;;;;;10.08;50.12;96873.19;4982356;28;20441;-67
2024/01/25 07:16:07;;;;;;;0.50;0.50;;;;;;;9.49;50.38;96806.56;4981961;28;20529;-63
2024/01/25 07:18:34;;;;;;;0.43;0.43;;;;;;;10.10;50.26;96898.50;4982083;28;20647;-61
2024/01/25 07:21:02;;;;;;;0.40;0.40;;;;;;;10.14;48.47;96921.53;4982342;28;20054;-61
2024/01/25 07:23:30;;;;;;;0.50;0.50;;;;;;;10.44;48.40;96941.78;4982316;28;20054;-60
2024/01/25 07:25:57;;;;;;;0.40;0.40;;;;;;;10.53;47.96;96922.94;4977646;28;20061;-61
2024/01/25 07:28:24;;;;;;;0.50;0.50;;;;;;;10.72;48.52;96929.53;4979107;28;20105;-61
2024/01/25 07:30:51;;;;;;;0.50;0.50;;;;;;;10.73;47.43;96931.94;4982898;28;20050;-63
2024/01/25 07:33:18;;;;;;;0.50;0.50;;;;;;;10.72;46.44;96904.63;4983003;28;20660;-63
2024/01/25 07:35:48;;;;;;;0.50;0.50;;;;;;;11.22;45.88;96937.34;4983802;28;20050;-61
2024/01/25 07:38:15;;;;;;;0.50;0.50;;;;;;;11.28;44.65;96942.19;4983234;28;20058;-62
2024/01/25 07:40:42;;;;;;;0.50;0.50;;;;;;;11.42;44.46;96947.09;4982249;28;20054;-63
2024/01/25 07:43:09;;;;;;;0.50;0.50;;;;;;;11.55;44.35;96920.72;4983098;28;20054;-60
2024/01/25 07:45:36;;;;;;;0.40;0.40;;;;;;;11.76;43.51;96940.41;4982746;28;20078;-61
2024/01/25 07:48:03;;;;;;;0.40;0.40;;;;;;;11.58;43.13;96951.28;4982511;28;20064;-62
2024/01/25 07:50:41;;;;;;;0.50;0.50;;;;;;;11.86;43.62;96934.16;4979842;28;20050;-62
2024/01/25 07:53:08;;;;;;;0.50;0.50;;;;;;;12.05;42.07;96943.06;4986284;28;20050;-62
2024/01/25 07:55:34;;;;;;;0.50;0.50;;;;;;;12.14;42.82;96889.97;4986729;28;20140;-63
2024/01/25 07:58:01;;;;;;;0.50;0.50;;;;;;;12.38;43.29;96910.84;4983894;28;20081;-63
2024/01/25 08:00:28;;;;;;;0.50;0.50;;;;;;;11.31;41.36;96779.78;4986317;28;20101;-63
2024/01/25 08:02:55;;;;;;;0.50;0.50;;;;;;;12.54;42.14;96903.00;4985048;28;20492;-62
2024/01/25 08:05:22;;;;;;;0.50;0.50;;;;;;;12.19;42.13;96870.19;4986404;28;20057;-61
2024/01/25 08:07:59;;;;;;;0.50;0.50;;;;;;;12.52;41.33;96905.38;4986530;28;20512;-62
2024/01/25 08:10:26;;;;;;;0.60;0.60;;;;;;;12.18;40.13;96879.72;4986631;28;20069;-63
2024/01/25 08:12:53;;;;;;;0.50;0.50;;;;;;;12.36;40.63;96907.63;4986334;28;20065;-62
2024/01/25 08:15:32;;;;;;;0.50;0.50;;;;;;;12.54;40.30;96914.91;4986151;28;20050;-62
2024/01/25 08:17:59;;;;;;;0.50;0.50;;;;;;;12.22;37.64;96819.44;4986385;28;20046;-63
2024/01/25 08:20:26;;;;;;;0.50;0.50;;;;;;;12.47;37.22;96862.06;4986606;28;20046;-62
2024/01/25 08:22:53;;;;;;;0.50;0.50;;;;;;;12.70;36.47;96911.84;4985062;28;20054;-62
2024/01/25 08:25:20;;;;;;;0.52;0.52;;;;;;;12.81;35.30;96904.38;4986377;28;20051;-61
2024/01/25 08:27:47;;;;;;;0.50;0.50;;;;;;;12.80;35.92;96920.25;4986165;28;20050;-62
2024/01/25 08:30:14;;;;;;;0.50;0.50;;;;;;;12.83;37.04;96913.94;4985976;28;20058;-63
2024/01/25 08:32:41;;;;;;;0.52;0.52;;;;;;;12.55;36.89;96858.16;4986425;28;20137;-64
2024/01/25 08:35:08;;;;;;;0.50;0.50;;;;;;;12.80;36.46;96900.81;4984828;28;20120;-61
2024/01/25 08:37:37;;;;;;;0.50;0.50;;;;;;;12.76;37.22;96916.66;4985878;28;20133;-65
2024/01/25 08:40:09;;;;;;;0.60;0.60;;;;;;;12.66;39.52;96884.03;4986023;28;20116;-62
2024/01/25 08:42:36;;;;;;;0.50;0.50;;;;;;;12.70;40.01;96923.75;4984550;28;20095;-64
2024/01/25 08:45:04;;;;;;;0.50;0.50;;;;;;;12.15;40.56;96802.75;4985957;28;20046;-71
2024/01/25 08:47:31;;;;;;;0.50;0.50;;;;;;;12.39;41.15;96835.44;4985734;28;20145;-63
2024/01/25 08:49:58;;;;;;;0.57;0.57;;;;;;;12.26;41.26;96792.50;5000319;28;20572;-62
2024/01/25 08:52:25;;;;;;;0.52;0.52;;;;;;;12.94;40.50;96884.19;4986188;28;20511;-69
2024/01/25 08:54:52;;;;;;;0.50;0.50;;;;;;;12.79;39.65;96904.75;4985786;28;20077;-68
2024/01/25 08:57:19;;;;;;;0.50;0.50;;;;;;;12.74;38.17;96885.66;4984158;28;20072;-68
2024/01/25 08:59:46;;;;;;;0.50;0.50;;;;;;;13.13;37.73;96931.22;4984952;28;20069;-66
2024/01/25 09:02:13;;;;;;;0.60;0.60;;;;;;;13.26;35.94;96923.31;4985785;28;20050;-62
2024/01/25 09:04:43;;;;;;;0.50;0.50;;;;;;;13.21;37.78;96885.56;4985389;28;20145;-68
2024/01/25 09:07:10;;;;;;;0.60;0.60;;;;;;;13.61;35.72;96921.47;4985591;28;20046;-63
2024/01/25 09:09:37;;;;;;;0.57;0.57;;;;;;;13.26;35.19;96907.41;4985194;28;20050;-63
2024/01/25 09:12:08;;;;;;;0.60;0.60;;;;;;;13.48;36.69;96930.56;4985231;28;20540;-67
2024/01/25 09:14:36;;;;;;;0.50;0.50;;;;;;;13.06;37.58;96875.53;4985499;28;20051;-65
2024/01/25 09:17:03;;;;;;;0.60;0.60;;;;;;;13.64;39.17;96917.88;4985298;28;20054;-63
2024/01/25 09:19:29;;;;;;;0.60;0.60;;;;;;;13.39;37.54;96900.31;4985448;28;20054;-62
2024/01/25 09:22:01;;;;;;;0.50;0.50;;;;;;;13.58;39.39;96935.34;4985130;28;20496;-62
2024/01/25 09:24:27;;;;;;;0.60;0.60;;;;;;;11.87;36.22;96638.78;4976626;28;20520;-62
2024/01/25 09:26:55;;;;;;;0.60;0.60;;;;;;;13.81;34.89;96940.59;4983412;28;20077;-67
2024/01/25 09:29:22;;;;;;;0.55;0.55;;;;;;;13.49;35.65;96960.78;4985255;28;20049;-68
2024/01/25 09:31:49;;;;;;;0.55;0.55;;;;;;;10.92;36.39;96568.00;4983885;28;20062;-68
2024/01/25 09:34:16;;;;;;;0.60;0.60;;;;;;;13.22;35.60;96889.13;4984776;28;20050;-68
2024/01/25 09:36:45;;;;;;;0.50;0.50;;;;;;;13.58;37.06;96936.16;4984516;28;20042;-63
2024/01/25 09:39:14;;;;;;;0.60;0.60;;;;;;;13.02;35.28;96857.25;4983460;28;20050;-63
2024/01/25 09:41:41;;;;;;;0.50;0.50;;;;;;;13.17;36.84;96893.06;4985007;28;20054;-63
2024/01/25 09:44:11;;;;;;;0.50;0.50;;;;;;;13.01;36.97;96862.00;4998828;28;20437;-68
2024/01/25 09:46:40;;;;;;;0.60;0.60;;;;;;;13.34;37.52;96891.56;5004087;28;20053;-62
2024/01/25 09:49:08;;;;;;;0.60;0.60;;;;;;;12.96;35.71;96937.41;5004197;28;20054;-64
2024/01/25 09:51:37;;;;;;;0.55;0.55;;;;;;;13.17;35.50;96959.81;5019228;28;20258;-62
2024/01/25 09:54:07;;;;;;;0.50;0.50;;;;;;;10.68;37.57;96614.47;5004513;28;20144;-64
2024/01/25 09:56:35;;;;;;;0.50;0.50;;;;;;;11.82;36.41;96766.81;5004115;28;20145;-64
2024/01/25 09:59:04;;;;;;;0.60;0.60;;;;;;;13.13;36.35;96959.03;5004151;28;20054;-63
2024/01/25 10:01:31;;;;;;;0.50;0.50;;;;;;;12.89;37.24;96937.38;5004033;28;20081;-68
2024/01/25 10:03:58;;;;;;;0.50;0.50;;;;;;;10.65;38.05;96598.63;5003837;28;20062;-62
2024/01/25 10:06:25;;;;;;;0.60;0.60;;;;;;;12.51;38.12;96843.44;5018568;28;20499;-66
2024/01/25 10:08:53;;;;;;;0.50;0.50;;;;;;;13.22;38.34;96944.75;5003896;28;20082;-62
2024/01/25 10:11:20;;;;;;;0.50;0.50;;;;;;;12.61;37.47;96881.63;5001976;28;20446;-61
2024/01/25 10:13:50;;;;;;;0.60;0.60;;;;;;;13.01;36.99;96939.88;5003776;28;20315;-66
2024/01/25 10:16:19;;;;;;;0.50;0.50;;;;;;;12.35;36.69;96795.72;5003645;28;20046;-66
2024/01/25 10:18:47;;;;;;;0.60;0.60;;;;;;;13.59;37.01;96932.19;5003825;28;20433;-66
2024/01/25 10:21:16;;;;;;;0.60;0.60;;;;;;;13.80;36.60;96945.38;5003759;28;20050;-67
2024/01/25 10:23:46;;;;;;;0.60;0.60;;;;;;;13.22;36.23;96906.63;5003470;28;20050;-67
2024/01/25 10:26:14;;;;;;;0.50;0.50;;;;;;;13.80;36.66;96925.09;5003844;28;20084;-65
2024/01/25 10:28:41;;;;;;;0.50;0.50;;;;;;;13.47;36.25;96818.47;5003794;28;20050;-65
2024/01/25 10:31:08;;;;;;;0.60;0.60;;;;;;;13.51;36.95;96880.47;5003870;28;20508;-62
2024/01/25 10:33:38;;;;;;;0.50;0.50;;;;;;;14.06;35.99;96938.66;5003520;28;20050;-66
2024/01/25 10:36:08;;;;;;;0.50;0.50;;;;;;;13.82;35.20;96906.00;5002123;28;20065;-63
2024/01/25 10:38:36;;;;;;;0.60;0.60;;;;;;;13.85;36.22;96882.97;5003460;28;20655;-67
2024/01/25 10:41:05;;;;;;;0.60;0.60;;;;;;;13.29;34.62;96873.25;5003508;28;20050;-72
2024/01/25 10:43:33;;;;;;;0.50;0.50;;;;;;;13.77;35.98;96886.91;5003311;28;20058;-67
2024/01/25 10:46:00;;;;;;;0.55;0.55;;;;;;;13.12;36.58;96823.91;5002116;28;20104;-68
2024/01/25 10:48:31;;;;;;;0.60;0.60;;;;;;;13.53;36.30;96939.31;5001562;28;20054;-65
2024/01/25 10:51:02;;;;;;;0.50;0.50;;;;;;;12.74;36.86;96818.19;5000469;28;20081;-66
2024/01/25 10:53:33;;;;;;;0.50;0.50;;;;;;;13.17;36.03;96851.34;5002142;28;20489;-66
2024/01/25 10:55:59;;;;;;;0.60;0.60;;;;;;;13.50;36.16;96890.03;5001898;28;20050;-61
2024/01/25 10:58:31;;;;;;;0.50;0.50;;;;;;;13.70;36.33;96882.91;5002852;28;20054;-65
2024/01/25 11:01:10;;;;;;;0.55;0.55;;;;;;;13.66;36.60;96876.53;5002026;28;20058;-61
2024/01/25 11:03:42;;;;;;;0.60;0.60;;;;;;;13.61;36.29;96901.16;5003309;28;20536;-62
2024/01/25 11:06:11;;;;;;;0.60;0.60;;;;;;;12.60;36.59;96685.50;5002924;28;20085;-62
2024/01/25 11:08:40;;;;;;;0.60;0.60;;;;;;;14.01;37.58;96869.44;5002936;28;20718;-65
2024/01/25 11:11:14;;;;;;;0.50;0.50;;;;;;;14.08;36.61;96841.59;5003085;28;20045;-62
2024/01/25 11:13:43;;;;;;;0.60;0.60;;;;;;;13.81;36.54;96834.81;5003025;28;20568;-66
2024/01/25 11:16:14;;;;;;;0.60;0.60;;;;;;;14.19;35.48;96873.03;5003294;28;20049;-62
2024/01/25 11:18:54;;;;;;;0.50;0.50;;;;;;;14.10;36.49;96865.06;5003233;28;20049;-64
2024/01/25 11:21:43;;;;;;;0.60;0.60;;;;;;;13.98;36.70;96853.50;5002908;28;20064;-61
2024/01/25 11:24:14;;;;;;;0.60;0.60;;;;;;;13.82;36.50;96855.88;4988779;28;20488;-61
2024/01/25 11:26:45;;;;;;;0.50;0.50;;;;;;;13.65;37.87;96813.72;4993212;28;20071;-67
2024/01/25 11:29:20;;;;;;;0.50;0.50;;;;;;;13.91;35.79;96861.88;5006805;28;20608;-63
2024/01/25 11:31:48;;;;;;;0.50;0.50;;;;;;;13.70;36.24;96832.78;5004917;28;20057;-64
2024/01/25 11:34:17;;;;;;;0.52;0.52;;;;;;;13.19;36.01;96740.50;5006549;28;20053;-62
2024/01/25 11:36:45;;;;;;;0.60;0.60;;;;;;;13.61;36.74;96840.75;5006166;28;20061;-60
2024/01/25 11:39:15;;;;;;;0.50;0.50;;;;;;;12.97;37.09;96777.75;5005676;28;20145;-63